Time;durP1;ratioP1;P1;durP2;ratioP2;P2;SDS_P1;SDS_P2;PMS_P1;PMS_P2;Temp;Humidity;BMP_temperature;BMP_pressure;BME280_temperature;BME280_humidity;BME280_pressure;Samples;Min_cycle;Max_cycle;Signal;HPM_P1;HPM_P2
2023/01/12 00:00:32;;;;;;;22.50;3.58;;;;;;;6.33;100.00;101043.97;5070645;28;20079;-76
2023/01/12 00:03:00;;;;;;;16.38;3.92;;;;;;;6.39;100.00;101053.47;5071971;28;20021;-76
2023/01/12 00:05:26;;;;;;;12.82;3.65;;;;;;;6.41;100.00;101051.75;5071554;28;20020;-76
2023/01/12 00:07:51;;;;;;;15.88;4.20;;;;;;;6.38;100.00;101036.22;5070889;28;20055;-77
2023/01/12 00:10:16;;;;;;;11.38;3.40;;;;;;;6.40;100.00;101044.81;5071281;28;20384;-77
2023/01/12 00:12:42;;;;;;;16.00;3.95;;;;;;;6.49;100.00;101044.78;5072177;28;20024;-76
2023/01/12 00:15:08;;;;;;;16.63;3.92;;;;;;;6.44;100.00;101020.66;5075020;28;20116;-76
2023/01/12 00:17:33;;;;;;;18.88;4.03;;;;;;;6.49;100.00;101024.06;5075708;28;20051;-76
2023/01/12 00:19:58;;;;;;;13.45;3.78;;;;;;;6.55;100.00;101038.72;5075281;28;20410;-77
2023/01/12 00:22:24;;;;;;;21.08;4.03;;;;;;;6.55;100.00;101030.97;5074893;28;20025;-76
2023/01/12 00:24:51;;;;;;;19.00;4.78;;;;;;;6.45;100.00;101004.22;5075115;28;20108;-77
2023/01/12 00:27:19;;;;;;;18.52;3.70;;;;;;;6.57;100.00;101017.16;5074652;28;20482;-76
2023/01/12 00:29:44;;;;;;;18.60;3.92;;;;;;;6.60;100.00;101024.00;5075379;28;20028;-77
2023/01/12 00:32:18;;;;;;;18.80;4.45;;;;;;;6.66;100.00;101031.75;5074921;28;20452;-77
2023/01/12 00:34:44;;;;;;;19.27;4.80;;;;;;;6.55;100.00;101007.66;5074576;28;20032;-77
2023/01/12 00:37:10;;;;;;;20.58;4.68;;;;;;;6.51;100.00;100995.59;5074894;28;20016;-76
2023/01/12 00:39:36;;;;;;;20.55;4.90;;;;;;;6.64;100.00;101015.38;5075221;28;20023;-77
2023/01/12 00:47:29;;;;;;;;;;;;;;;6.67;100.00;101007.59;5075040;28;20035;-76
2023/01/12 00:49:55;;;;;;;25.33;4.50;;;;;;;6.50;100.00;100973.13;5074446;28;19912;-76
2023/01/12 00:52:20;;;;;;;25.05;4.90;;;;;;;6.68;100.00;100998.94;5074405;28;20279;-76
2023/01/12 00:54:46;;;;;;;17.77;4.68;;;;;;;6.67;100.00;100975.63;5067727;28;20017;-76
2023/01/12 00:57:12;;;;;;;19.92;4.78;;;;;;;6.67;100.00;100992.06;5071447;28;20012;-76
2023/01/12 00:59:38;;;;;;;25.33;5.28;;;;;;;6.75;100.00;100989.41;5074812;28;20036;-77
2023/01/12 01:02:04;;;;;;;26.55;5.05;;;;;;;6.70;100.00;100973.91;5074449;28;20506;-76
2023/01/12 01:04:30;;;;;;;18.95;4.78;;;;;;;6.72;100.00;100968.69;5073893;28;20040;-76
2023/01/12 01:06:56;;;;;;;17.10;5.25;;;;;;;6.74;100.00;100974.75;5074664;28;20068;-76
2023/01/12 01:09:21;;;;;;;22.90;5.57;;;;;;;6.77;100.00;100967.81;5074293;28;20104;-76
2023/01/12 01:11:47;;;;;;;24.65;5.88;;;;;;;6.76;100.00;100968.66;5073815;28;20397;-76
2023/01/12 01:14:12;;;;;;;22.52;5.50;;;;;;;6.78;100.00;100968.66;5074375;28;20035;-76
2023/01/12 01:16:37;;;;;;;23.75;4.82;;;;;;;6.71;100.00;100951.44;5073777;28;20019;-76
2023/01/12 01:19:04;;;;;;;25.38;5.00;;;;;;;6.71;100.00;100947.13;5074486;28;20032;-77
2023/01/12 01:21:31;;;;;;;30.35;5.13;;;;;;;6.80;100.00;100965.22;5074218;28;20032;-76
2023/01/12 01:23:56;;;;;;;22.35;5.22;;;;;;;6.69;100.00;100943.66;5073503;28;20371;-76
2023/01/12 01:26:23;;;;;;;25.50;5.47;;;;;;;6.75;100.00;100948.81;5073450;28;20025;-76
2023/01/12 01:28:49;;;;;;;26.35;5.28;;;;;;;6.79;100.00;100953.09;5074176;28;20033;-76
2023/01/12 01:31:20;;;;;;;24.88;6.20;;;;;;;6.82;100.00;100946.19;5073039;28;20021;-76
2023/01/12 01:33:47;;;;;;;25.92;5.30;;;;;;;6.72;100.00;100937.59;5074067;28;20364;-76
2023/01/12 01:36:14;;;;;;;34.47;6.70;;;;;;;6.78;100.00;100942.75;5073834;28;20036;-77
2023/01/12 01:38:41;;;;;;;30.40;5.60;;;;;;;6.85;100.00;100956.53;5073388;28;20071;-77
2023/01/12 01:41:07;;;;;;;32.30;6.15;;;;;;;6.75;100.00;100933.28;5073918;28;20013;-77
2023/01/12 01:43:47;;;;;;;30.10;5.47;;;;;;;6.85;100.00;100948.75;5073432;28;20031;-77
2023/01/12 01:46:16;;;;;;;38.80;6.38;;;;;;;6.84;100.00;100939.28;5072886;28;20078;-77
2023/01/12 01:48:42;;;;;;;32.67;5.63;;;;;;;6.79;100.00;100934.09;5073821;28;20396;-77
2023/01/12 01:51:12;;;;;;;19.90;5.40;;;;;;;6.79;100.00;100909.03;5073578;28;20103;-77
2023/01/12 01:53:40;;;;;;;26.55;5.07;;;;;;;6.80;100.00;100910.78;5072519;28;20036;-77
2023/01/12 01:56:11;;;;;;;28.40;6.47;;;;;;;6.63;100.00;100880.66;5065060;28;20020;-77
2023/01/12 01:58:42;;;;;;;27.85;5.15;;;;;;;6.80;100.00;100904.72;5073468;28;20518;-77
2023/01/12 02:01:08;;;;;;;33.10;6.35;;;;;;;6.79;100.00;100898.69;5073150;28;20036;-77
2023/01/12 02:03:36;;;;;;;32.00;5.35;;;;;;;6.65;100.00;100874.63;5073291;28;20363;-77
2023/01/12 02:06:01;;;;;;;30.60;5.60;;;;;;;6.74;100.00;100877.16;5072463;28;20052;-77
2023/01/12 02:09:18;;;;;;;27.55;6.47;;;;;;;6.79;100.00;100896.09;5073419;28;20055;-76
2023/01/12 02:17:32;;;;;;;;;;;;;;;6.79;100.00;100877.94;5073508;28;20059;-77
2023/01/12 02:20:16;;;;;;;37.42;5.32;;;;;;;6.74;100.00;100884.06;5072587;28;19912;-77
2023/01/12 02:22:59;;;;;;;;;;;;;;;6.78;100.00;100883.16;5073729;28;20051;-76
2023/01/12 02:25:43;;;;;;;27.60;4.60;;;;;;;6.79;100.00;100877.94;5060907;28;19962;-77
2023/01/12 02:28:30;;;;;;;33.88;4.93;;;;;;;6.79;100.00;100888.31;5071950;28;20029;-77
2023/01/12 02:31:07;;;;;;;24.65;4.85;;;;;;;6.82;100.00;100882.25;5073344;28;20025;-76
2023/01/12 02:33:38;;;;;;;29.50;4.88;;;;;;;6.78;100.00;100870.22;5072579;28;20422;-77
2023/01/12 02:36:34;;;;;;;43.90;5.57;;;;;;;6.83;100.00;100867.56;5071858;28;20025;-76
2023/01/12 02:39:23;;;;;;;19.95;4.60;;;;;;;6.85;100.00;100873.59;5061143;28;20032;-76
2023/01/12 02:45:06;;;;;;;24.63;4.68;;;;;;;6.82;100.00;100845.13;5072870;28;20115;-76
2023/01/12 02:47:42;;;;;;;24.38;5.30;;;;;;;6.82;100.00;100845.13;5072483;28;20024;-76
2023/01/12 02:50:14;;;;;;;30.88;5.10;;;;;;;6.87;100.00;100840.78;5071548;28;20025;-77
2023/01/12 02:52:44;;;;;;;29.30;4.85;;;;;;;6.86;100.00;100833.84;5072281;28;20044;-77
2023/01/12 02:55:12;;;;;;;31.20;5.00;;;;;;;6.77;100.00;100821.84;5063685;28;20039;-76
2023/01/12 02:57:37;;;;;;;29.92;4.68;;;;;;;6.91;100.00;100839.88;5072697;28;20059;-77
2023/01/12 03:00:05;;;;;;;29.05;5.40;;;;;;;6.80;100.00;100820.09;5072285;28;20055;-77
2023/01/12 03:02:31;;;;;;;23.10;5.22;;;;;;;6.87;100.00;100823.50;5071401;28;20020;-76
2023/01/12 03:04:56;;;;;;;28.58;5.40;;;;;;;6.75;100.00;100793.34;5072294;28;20066;-77
2023/01/12 03:07:27;;;;;;;33.60;4.90;;;;;;;6.90;100.00;100807.91;5071974;28;20029;-77
2023/01/12 03:09:59;;;;;;;29.20;6.03;;;;;;;6.89;100.00;100805.31;5071553;28;20024;-77
2023/01/12 03:12:36;;;;;;;21.13;4.72;;;;;;;6.82;100.00;100783.78;5072257;28;20070;-77
2023/01/12 03:15:07;;;;;;;21.30;4.90;;;;;;;6.71;100.00;100752.81;5072370;28;20107;-76
2023/01/12 03:17:43;;;;;;;22.73;5.18;;;;;;;6.79;100.00;100752.72;5071459;28;20103;-77
2023/01/12 03:20:22;;;;;;;23.98;4.72;;;;;;;6.85;100.00;100763.03;5058964;28;20029;-77
2023/01/12 03:22:52;;;;;;;26.70;5.75;;;;;;;6.91;100.00;100767.31;5072361;28;20082;-77
2023/01/12 03:25:19;;;;;;;28.25;5.63;;;;;;;6.94;100.00;100762.09;5071165;28;20375;-77
2023/01/12 03:27:50;;;;;;;29.17;5.95;;;;;;;6.94;100.00;100755.19;5072285;28;20031;-77
2023/01/12 03:30:20;;;;;;;27.38;5.63;;;;;;;6.92;100.00;100743.09;5057304;28;20016;-77
2023/01/12 03:32:45;;;;;;;21.13;4.80;;;;;;;6.91;100.00;100744.00;5072188;28;20147;-77
2023/01/12 03:35:11;;;;;;;21.60;4.80;;;;;;;6.96;100.00;100752.56;5071532;28;20477;-77
2023/01/12 03:37:46;;;;;;;24.27;4.57;;;;;;;6.94;100.00;100751.72;5071397;28;20028;-77
2023/01/12 03:40:18;;;;;;;19.25;4.70;;;;;;;6.94;100.00;100736.19;5071535;28;20059;-77
2023/01/12 03:42:50;;;;;;;17.63;4.72;;;;;;;6.96;100.00;100735.28;5071911;28;20021;-77
2023/01/12 03:45:30;;;;;;;23.53;4.63;;;;;;;6.88;100.00;100728.47;5070958;28;20020;-77
2023/01/12 03:48:14;;;;;;;23.65;4.32;;;;;;;6.96;100.00;100729.22;5072886;28;20024;-77
2023/01/12 03:50:45;;;;;;;29.20;4.70;;;;;;;6.84;100.00;100693.09;5074823;28;20072;-77
2023/01/12 03:53:15;;;;;;;19.13;3.80;;;;;;;6.85;100.00;100674.94;5074220;28;20036;-77
2023/01/12 03:55:42;;;;;;;24.83;4.47;;;;;;;6.91;100.00;100685.22;5072125;28;20033;-77
2023/01/12 03:58:08;;;;;;;18.73;4.13;;;;;;;6.92;100.00;100653.25;5075943;28;20017;-77
2023/01/12 04:00:34;;;;;;;22.73;4.35;;;;;;;6.86;100.00;100652.47;5075358;28;20024;-77
2023/01/12 04:03:17;;;;;;;24.55;4.72;;;;;;;6.90;100.00;100651.53;5075703;28;20097;-77
2023/01/12 04:05:44;;;;;;;21.33;4.45;;;;;;;6.94;100.00;100659.28;5075198;28;20444;-77
2023/01/12 04:08:12;;;;;;;25.40;4.82;;;;;;;6.87;100.00;100646.44;5075267;28;20092;-77
2023/01/12 04:10:38;;;;;;;16.90;3.92;;;;;;;6.93;100.00;100652.41;5075708;28;20028;-77
2023/01/12 04:13:03;;;;;;;18.73;4.43;;;;;;;6.90;100.00;100633.41;5074613;28;20023;-77
2023/01/12 04:15:29;;;;;;;21.00;4.10;;;;;;;6.92;100.00;100624.75;5075479;28;20020;-77
2023/01/12 04:17:54;;;;;;;21.95;4.00;;;;;;;6.97;100.00;100627.28;5075285;28;20020;-77
2023/01/12 04:20:20;;;;;;;22.38;4.97;;;;;;;6.96;100.00;100608.28;5074571;28;20040;-77
2023/01/12 04:22:45;;;;;;;18.58;3.95;;;;;;;6.96;100.00;100622.97;5075591;28;20491;-77
2023/01/12 04:25:20;;;;;;;22.92;4.28;;;;;;;6.98;100.00;100631.59;5075051;28;20478;-77
2023/01/12 04:27:48;;;;;;;22.10;4.43;;;;;;;7.00;100.00;100622.06;5074566;28;20037;-77
2023/01/12 04:30:16;;;;;;;18.38;5.07;;;;;;;6.99;100.00;100604.78;5075111;28;20075;-77
2023/01/12 04:32:42;;;;;;;24.42;4.25;;;;;;;6.96;100.00;100603.09;5075165;28;20028;-77
2023/01/12 04:35:10;;;;;;;23.08;4.53;;;;;;;6.91;100.00;100578.97;5074375;28;20021;-77
2023/01/12 04:37:36;;;;;;;27.58;4.10;;;;;;;6.89;100.00;100566.91;5075088;28;20472;-77
2023/01/12 04:40:01;;;;;;;25.92;4.15;;;;;;;6.89;100.00;100566.91;5074990;28;20047;-78
2023/01/12 04:45:11;;;;;;;29.33;4.00;;;;;;;6.90;100.00;100566.03;5074412;28;20078;-77
2023/01/12 04:47:36;;;;;;;23.48;3.47;;;;;;;6.97;100.00;100571.13;5074392;28;20456;-77
2023/01/12 04:50:02;;;;;;;21.60;3.88;;;;;;;6.97;100.00;100546.94;5075087;28;20488;-77
2023/01/12 04:52:28;;;;;;;24.35;4.38;;;;;;;6.94;100.00;100534.88;5074487;28;20373;-78
2023/01/12 04:54:53;;;;;;;31.20;4.20;;;;;;;6.91;100.00;100541.84;5077317;28;20563;-78
2023/01/12 04:57:18;;;;;;;18.77;3.90;;;;;;;6.94;100.00;100518.47;5072314;28;20188;-77
2023/01/12 04:59:44;;;;;;;21.65;3.85;;;;;;;6.78;100.00;100487.59;5073294;28;20025;-77
2023/01/12 05:02:09;;;;;;;21.98;3.60;;;;;;;6.98;100.00;100517.56;5073662;28;20017;-77
2023/01/12 05:04:35;;;;;;;27.52;4.25;;;;;;;6.96;100.00;100527.06;5074780;28;20078;-78
2023/01/12 05:07:00;;;;;;;21.77;3.58;;;;;;;6.93;100.00;100516.75;5074733;28;20036;-77
2023/01/12 05:12:09;;;;;;;19.02;3.92;;;;;;;6.84;100.00;100527.25;5074176;28;20455;-78
2023/01/12 05:14:34;;;;;;;17.08;3.85;;;;;;;6.91;100.00;100519.38;5074514;28;20016;-78
2023/01/12 05:17:00;;;;;;;27.10;5.10;;;;;;;6.92;100.00;100496.91;5073791;28;20460;-78
2023/01/12 05:19:25;;;;;;;24.55;4.25;;;;;;;6.97;100.00;100513.25;5074271;28;20111;-77
2023/01/12 05:21:50;;;;;;;22.00;2.95;;;;;;;7.01;100.00;100525.28;5074499;28;20048;-78
2023/01/12 05:24:16;;;;;;;31.70;3.63;;;;;;;6.97;100.00;100524.47;5073321;28;20031;-78
2023/01/12 05:26:41;;;;;;;25.83;4.25;;;;;;;6.98;100.00;100527.91;5074198;28;20383;-78
2023/01/12 05:29:09;;;;;;;20.17;3.70;;;;;;;7.01;100.00;100535.66;5074276;28;20123;-78
2023/01/12 05:31:35;;;;;;;20.85;3.97;;;;;;;6.97;100.00;100513.25;5073462;28;20024;-78
2023/01/12 05:34:00;;;;;;;24.30;4.55;;;;;;;6.98;100.00;100512.38;5074307;28;20051;-78
2023/01/12 05:36:25;;;;;;;26.58;4.18;;;;;;;6.94;100.00;100506.38;5073642;28;20446;-77
2023/01/12 05:38:51;;;;;;;22.92;3.78;;;;;;;6.93;100.00;100509.84;5073206;28;20033;-78
2023/01/12 05:41:16;;;;;;;21.02;3.85;;;;;;;6.95;100.00;100497.72;5073375;28;20065;-78
2023/01/12 05:43:50;;;;;;;25.63;4.22;;;;;;;6.87;100.00;100493.53;5074123;28;20029;-78
2023/01/12 05:46:24;;;;;;;25.15;3.35;;;;;;;7.05;100.00;100506.22;5073387;28;20436;-78
2023/01/12 05:48:51;;;;;;;30.38;3.63;;;;;;;7.00;100.00;100506.28;5073997;28;20020;-77
2023/01/12 05:51:18;;;;;;;16.58;3.55;;;;;;;6.96;100.00;100485.59;5072754;28;20017;-77
2023/01/12 05:53:43;;;;;;;17.38;2.95;;;;;;;7.06;100.00;100505.31;5073264;28;20564;-77
2023/01/12 05:56:11;;;;;;;22.58;3.40;;;;;;;7.07;100.00;100504.47;5070354;28;20116;-77
2023/01/12 05:58:36;;;;;;;20.42;3.08;;;;;;;7.10;100.00;100499.25;5072623;28;20024;-77
2023/01/12 06:01:08;;;;;;;18.40;3.53;;;;;;;7.00;100.00;100479.53;5073252;28;20025;-77
2023/01/12 06:03:34;;;;;;;21.38;3.67;;;;;;;7.11;100.00;100518.25;5073744;28;20020;-77
2023/01/12 06:06:00;;;;;;;17.27;3.47;;;;;;;7.07;100.00;100494.09;5072709;28;20110;-77
2023/01/12 06:08:25;;;;;;;14.77;3.67;;;;;;;6.96;100.00;100486.47;5073089;28;20467;-77
2023/01/12 06:10:51;;;;;;;20.98;2.97;;;;;;;6.96;100.00;100468.31;5073104;28;20020;-77
2023/01/12 06:16:04;;;;;;;15.00;3.97;;;;;;;7.13;100.00;100488.84;5073192;28;20040;-78
2023/01/12 06:18:36;;;;;;;18.50;3.10;;;;;;;7.20;100.00;100503.41;5073214;28;20021;-78
2023/01/12 06:21:02;;;;;;;13.27;2.95;;;;;;;7.19;100.00;100501.72;5072079;28;20486;-78
2023/01/12 06:23:28;;;;;;;13.13;2.83;;;;;;;7.21;100.00;100505.13;5073000;28;20098;-78
2023/01/12 06:25:54;;;;;;;19.13;3.15;;;;;;;7.16;100.00;100499.16;5073146;28;20065;-78
2023/01/12 06:28:20;;;;;;;8.65;2.50;;;;;;;7.18;100.00;100491.34;5072134;28;20048;-78
2023/01/12 06:30:53;;;;;;;14.80;3.88;;;;;;;7.20;100.00;100480.06;5073055;28;20454;-77
2023/01/12 06:33:19;;;;;;;18.63;2.47;;;;;;;7.29;100.00;100489.44;5071622;28;20959;-78
2023/01/12 06:35:48;;;;;;;13.70;3.10;;;;;;;7.15;100.00;100474.09;5073086;28;20155;-78
2023/01/12 06:38:13;;;;;;;11.25;2.83;;;;;;;7.22;100.00;100499.03;5072593;28;20020;-78
2023/01/12 06:40:38;;;;;;;10.10;2.80;;;;;;;7.27;100.00;100509.34;5072031;28;20039;-78
2023/01/12 06:43:03;;;;;;;10.57;3.15;;;;;;;7.19;100.00;100493.94;5072849;28;20024;-78
2023/01/12 06:45:29;;;;;;;12.52;3.40;;;;;;;7.27;100.00;100518.00;5072477;28;20019;-78
2023/01/12 06:47:56;;;;;;;12.10;2.90;;;;;;;7.22;100.00;100486.06;5071822;28;20388;-78
2023/01/12 06:50:21;;;;;;;10.20;3.47;;;;;;;7.37;100.00;100503.16;5072361;28;20054;-78
2023/01/12 06:52:46;;;;;;;12.73;3.00;;;;;;;7.36;100.00;100506.63;5072622;28;20040;-77
2023/01/12 06:55:12;;;;;;;11.70;2.90;;;;;;;7.25;100.00;100491.22;5069372;28;20032;-78
2023/01/12 06:57:37;;;;;;;12.98;2.97;;;;;;;7.36;100.00;100509.22;5072548;28;20058;-78
2023/01/12 07:00:05;;;;;;;11.52;3.22;;;;;;;7.39;100.00;100508.28;5072626;28;20032;-78
2023/01/12 07:02:30;;;;;;;9.82;3.17;;;;;;;7.34;100.00;100499.75;5071174;28;20112;-78
2023/01/12 07:04:55;;;;;;;10.43;2.78;;;;;;;7.39;100.00;100509.19;5072692;28;20115;-78
2023/01/12 07:07:21;;;;;;;9.52;2.70;;;;;;;7.36;100.00;100509.22;5071897;28;20066;-78
2023/01/12 07:09:46;;;;;;;7.18;2.90;;;;;;;7.37;100.00;100502.28;5071709;28;20016;-78
2023/01/12 07:12:11;;;;;;;10.68;2.92;;;;;;;7.35;100.00;100489.34;5071946;28;20116;-78
2023/01/12 07:14:37;;;;;;;8.55;3.00;;;;;;;7.35;100.00;100484.16;5072553;28;20066;-78
2023/01/12 07:17:02;;;;;;;12.02;2.70;;;;;;;7.41;100.00;100511.72;5071605;28;20555;-78
2023/01/12 07:19:27;;;;;;;10.63;3.42;;;;;;;7.43;100.00;100499.59;5071997;28;20033;-78
2023/01/12 07:21:53;;;;;;;8.43;3.40;;;;;;;7.33;100.00;100487.66;5072181;28;20699;-78
2023/01/12 07:24:18;;;;;;;14.60;3.30;;;;;;;7.35;100.00;100491.06;5070783;28;20032;-78
2023/01/12 07:26:46;;;;;;;14.98;3.58;;;;;;;7.36;100.00;100490.22;5072195;28;20020;-78
2023/01/12 07:29:12;;;;;;;14.05;3.05;;;;;;;7.36;100.00;100482.44;5071689;28;20464;-78
2023/01/12 07:31:37;;;;;;;13.52;3.00;;;;;;;7.27;100.00;100486.88;5071179;28;20024;-78
2023/01/12 07:34:02;;;;;;;11.88;3.22;;;;;;;7.44;100.00;100509.94;5072223;28;20063;-77
2023/01/12 07:36:28;;;;;;;8.70;2.80;;;;;;;7.46;100.00;100507.34;5070779;28;20055;-78
2023/01/12 07:38:53;;;;;;;9.57;2.80;;;;;;;7.46;100.00;100509.94;5072151;28;20020;-78
2023/01/12 07:44:11;;;;;;;10.07;3.47;;;;;;;7.54;100.00;100525.38;5071579;28;20055;-78
2023/01/12 07:46:37;;;;;;;7.93;2.70;;;;;;;7.49;100.00;100517.66;5071997;28;20021;-78
2023/01/12 07:49:02;;;;;;;10.32;3.40;;;;;;;7.54;100.00;100525.38;5072010;28;20077;-78
2023/01/12 07:51:28;;;;;;;8.50;2.75;;;;;;;7.50;100.00;100519.38;5070641;28;20029;-78
2023/01/12 07:53:54;;;;;;;9.65;2.80;;;;;;;7.58;100.00;100530.47;5071788;28;20072;-78
2023/01/12 07:56:19;;;;;;;11.85;3.45;;;;;;;7.57;100.00;100531.34;5070328;28;20052;-77
2023/01/12 07:58:48;;;;;;;9.20;2.92;;;;;;;7.57;100.00;100531.34;5070902;28;20025;-77
2023/01/12 08:01:14;;;;;;;8.98;2.90;;;;;;;7.60;100.00;100530.47;5071633;28;20099;-78
2023/01/12 08:03:39;;;;;;;13.63;2.90;;;;;;;7.63;100.00;100548.56;5072036;28;20031;-77
2023/01/12 08:06:06;;;;;;;9.68;2.70;;;;;;;7.62;100.00;100534.75;5070758;28;20494;-77
2023/01/12 08:08:32;;;;;;;8.63;3.63;;;;;;;7.68;100.00;100558.00;5071415;28;20461;-78
2023/01/12 08:11:06;;;;;;;12.13;3.20;;;;;;;7.68;100.00;100554.53;5071630;28;20065;-78
2023/01/12 08:13:32;;;;;;;10.73;3.05;;;;;;;7.66;100.00;100546.78;5070637;28;20099;-78
2023/01/12 08:16:05;;;;;;;12.18;3.33;;;;;;;7.64;100.00;100558.06;5071813;28;20111;-77
2023/01/12 08:18:36;;;;;;;6.32;2.83;;;;;;;7.71;100.00;100567.47;5071073;28;20016;-78
2023/01/12 08:21:05;;;;;;;8.25;2.72;;;;;;;7.68;100.00;100555.41;5071616;28;20098;-77
2023/01/12 08:23:34;;;;;;;12.25;2.83;;;;;;;7.68;100.00;100550.22;5071387;28;20016;-78
2023/01/12 08:26:03;;;;;;;11.88;3.00;;;;;;;7.68;100.00;100568.38;5070508;28;20063;-77
2023/01/12 08:28:43;;;;;;;11.85;3.33;;;;;;;7.76;100.00;100577.78;5071216;28;20020;-78
2023/01/12 08:31:13;;;;;;;9.82;3.40;;;;;;;7.79;100.00;100568.22;5071314;28;20103;-78
2023/01/12 08:33:39;;;;;;;10.30;2.95;;;;;;;7.81;100.00;100581.13;5071312;28;20353;-78
2023/01/12 08:36:09;;;;;;;8.38;2.83;;;;;;;7.82;100.00;100583.72;5075103;28;20017;-78
2023/01/12 08:38:35;;;;;;;8.10;2.95;;;;;;;7.81;100.00;100579.41;5075364;28;20028;-78
2023/01/12 08:44:04;;;;;;;;;;;;;;;7.88;100.00;100582.75;5075611;28;20128;-78
2023/01/12 08:46:35;;;;;;;11.48;3.00;;;;;;;7.86;100.00;100576.75;5074831;28;19912;-78
2023/01/12 08:49:10;;;;;;;9.73;2.88;;;;;;;7.86;100.00;100581.94;5074420;28;20373;-78
2023/01/12 08:51:38;;;;;;;9.40;3.30;;;;;;;7.95;100.00;100605.16;5075020;28;20016;-78
2023/01/12 08:54:05;;;;;;;7.97;4.07;;;;;;;7.88;100.00;100586.22;5073932;28;20133;-78
2023/01/12 08:56:31;;;;;;;8.68;2.97;;;;;;;7.97;100.00;100595.56;5074505;28;20032;-78
2023/01/12 08:58:56;;;;;;;7.43;3.20;;;;;;;7.92;100.00;100589.63;5074756;28;20028;-78
2023/01/12 09:01:22;;;;;;;5.93;3.00;;;;;;;7.99;100.00;100599.03;5073471;28;20459;-79
2023/01/12 09:03:48;;;;;;;7.97;2.88;;;;;;;7.94;100.00;100593.03;5074665;28;20124;-78
2023/01/12 09:06:22;;;;;;;6.75;3.05;;;;;;;8.04;100.00;100594.59;5074170;28;20021;-78
2023/01/12 09:08:52;;;;;;;11.18;3.00;;;;;;;8.05;100.00;100598.06;5074187;28;20062;-78
2023/01/12 09:11:18;;;;;;;5.15;2.38;;;;;;;7.92;100.00;100587.03;5074313;28;20024;-78
2023/01/12 09:13:43;;;;;;;8.90;2.80;;;;;;;7.96;100.00;100586.94;5074692;28;20031;-78
2023/01/12 09:16:14;;;;;;;8.85;3.50;;;;;;;8.11;100.00;100616.09;5073437;28;20628;-78
2023/01/12 09:18:40;;;;;;;6.63;2.75;;;;;;;8.09;100.00;100599.72;5074424;28;20021;-78
2023/01/12 09:21:09;;;;;;;9.60;2.72;;;;;;;7.96;100.00;100580.91;5074524;28;20070;-78
2023/01/12 09:23:35;;;;;;;8.13;3.13;;;;;;;8.04;100.00;100592.00;5082611;28;20069;-78
2023/01/12 09:26:12;;;;;;;8.50;3.10;;;;;;;7.98;100.00;100584.34;5079068;28;20472;-77
2023/01/12 09:28:37;;;;;;;10.40;3.08;;;;;;;8.16;100.00;100609.97;5074172;28;20023;-78
2023/01/12 09:31:05;;;;;;;5.43;2.88;;;;;;;8.18;100.00;100610.81;5073421;28;20387;-78
2023/01/12 09:33:32;;;;;;;6.20;2.50;;;;;;;8.22;100.00;100619.41;5074034;28;20414;-77
2023/01/12 09:36:11;;;;;;;5.85;2.40;;;;;;;8.23;100.00;100608.13;5073364;28;20468;-78
2023/01/12 09:38:39;;;;;;;6.85;2.75;;;;;;;8.23;100.00;100615.91;5074074;28;20017;-77
2023/01/12 09:47:26;;;;;;;6.43;2.60;;;;;;;8.27;100.00;100634.88;5072832;28;20053;-77
2023/01/12 09:50:09;;;;;;;4.63;2.00;;;;;;;8.31;100.00;100637.44;5073739;28;20426;-77
2023/01/12 09:53:22;;;;;;;6.22;2.22;;;;;;;8.33;100.00;100647.78;5073616;28;20041;-77
2023/01/12 09:56:01;;;;;;;7.68;2.00;;;;;;;8.32;100.00;100646.06;5060433;28;20519;-78
2023/01/12 09:58:44;;;;;;;4.93;1.77;;;;;;;8.34;100.00;100649.50;5068886;28;20372;-77
2023/01/12 10:01:12;;;;;;;2.92;1.88;;;;;;;8.30;100.00;100642.63;5073305;28;20156;-77
2023/01/12 10:03:40;;;;;;;2.67;1.90;;;;;;;8.34;100.00;100657.31;5073459;28;20025;-77
2023/01/12 10:06:12;;;;;;;4.40;1.90;;;;;;;8.37;100.00;100659.81;5072440;28;20550;-77
2023/01/12 10:08:41;;;;;;;5.65;1.98;;;;;;;8.41;100.00;100651.16;5073648;28;20060;-77
2023/01/12 10:11:15;;;;;;;3.65;2.10;;;;;;;8.40;100.00;100655.50;5072460;28;20066;-77
2023/01/12 10:13:47;;;;;;;3.45;1.83;;;;;;;8.44;100.00;100656.28;5073450;28;20028;-77
2023/01/12 10:16:39;;;;;;;4.30;1.70;;;;;;;8.46;100.00;100654.50;5072957;28;20104;-77
2023/01/12 10:19:23;;;;;;;4.88;2.10;;;;;;;8.51;100.00;100657.03;5072496;28;20381;-77
2023/01/12 10:21:51;;;;;;;4.32;1.92;;;;;;;8.40;100.00;100644.22;5073197;28;20028;-77
2023/01/12 10:24:20;;;;;;;4.25;1.90;;;;;;;8.44;100.00;100657.13;5072910;28;20039;-77
2023/01/12 10:26:56;;;;;;;5.80;2.03;;;;;;;8.48;100.00;100665.72;5072219;28;20033;-77
2023/01/12 10:29:22;;;;;;;3.58;1.80;;;;;;;8.41;100.00;100631.22;5072793;28;20044;-77
2023/01/12 10:31:47;;;;;;;5.75;2.20;;;;;;;8.46;100.00;100648.44;5073178;28;20083;-77
2023/01/12 10:34:13;;;;;;;3.08;1.80;;;;;;;8.49;100.00;100654.44;5071993;28;20547;-77
2023/01/12 10:36:48;;;;;;;5.57;1.63;;;;;;;8.44;100.00;100619.91;5072724;28;20016;-77
2023/01/12 10:39:26;;;;;;;2.90;1.70;;;;;;;8.51;100.00;100650.09;5071608;28;20035;-77
2023/01/12 10:43:17;;;;;;;3.60;1.42;;;;;;;8.53;100.00;100661.28;5072703;28;20064;-77
2023/01/12 10:45:17;;;;;;;5.30;1.70;;;;;;;8.57;100.00;100641.34;5072298;28;20031;-77
2023/01/12 10:47:44;;;;;;;3.42;1.50;;;;;;;8.51;100.00;100625.84;5071830;28;20478;-77
2023/01/12 10:50:31;;;;;;;3.13;1.45;;;;;;;8.54;100.00;100631.84;5072406;28;20400;-77
2023/01/12 10:53:04;;;;;;;2.10;1.50;;;;;;;8.62;100.00;100655.94;5072651;28;20124;-77
2023/01/12 10:55:36;;;;;;;4.32;1.95;;;;;;;8.60;100.00;100655.13;5067405;28;20071;-77
2023/01/12 10:58:02;;;;;;;2.30;1.85;;;;;;;8.52;100.00;100646.59;5061115;28;20024;-77
2023/01/12 11:00:28;;;;;;;3.78;1.80;;;;;;;8.50;100.00;100639.72;5071541;28;20376;-77
2023/01/12 11:02:54;;;;;;;2.78;1.50;;;;;;;8.53;100.00;100639.66;5072588;28;20486;-77
2023/01/12 11:05:25;;;;;;;2.20;1.60;;;;;;;8.58;100.00;100659.47;5072236;28;20108;-77
2023/01/12 11:07:50;;;;;;;3.13;1.85;;;;;;;8.59;100.00;100666.38;5071768;28;20036;-77
2023/01/12 11:10:40;;;;;;;2.92;1.52;;;;;;;8.54;100.00;100651.78;5072311;28;20034;-77
2023/01/12 11:13:21;;;;;;;3.75;1.77;;;;;;;8.55;100.00;100649.13;5071541;28;20044;-77
2023/01/12 11:16:01;;;;;;;4.03;2.00;;;;;;;8.40;100.00;100626.91;5071365;28;20475;-77
2023/01/12 11:18:45;;;;;;;3.00;1.90;;;;;;;8.61;100.00;100655.97;5071994;28;20395;-76
2023/01/12 11:21:16;;;;;;;3.22;2.08;;;;;;;8.60;100.00;100644.72;5071944;28;20364;-77
2023/01/12 11:24:04;;;;;;;4.50;2.13;;;;;;;8.65;100.00;100649.84;5071795;28;20108;-76
2023/01/12 11:26:56;;;;;;;4.00;2.15;;;;;;;8.64;100.00;100648.97;5071743;28;20024;-77
2023/01/12 11:29:35;;;;;;;3.55;1.90;;;;;;;8.66;100.00;100652.41;5070829;28;20024;-77
2023/01/12 11:32:09;;;;;;;2.47;1.80;;;;;;;8.62;100.00;100631.69;5072100;28;20372;-76
2023/01/12 11:34:38;;;;;;;4.50;1.73;;;;;;;8.60;100.00;100618.75;5071997;28;20025;-76
2023/01/12 11:37:13;;;;;;;7.00;2.17;;;;;;;8.60;100.00;100631.75;5071265;28;20024;-76
2023/01/12 11:39:41;;;;;;;2.70;1.58;;;;;;;8.65;100.00;100627.28;5071774;28;20387;-76
2023/01/12 11:45:38;;;;;;;4.68;2.10;;;;;;;8.72;100.00;100648.81;5072227;28;20395;-77
2023/01/12 11:48:25;;;;;;;4.00;2.13;;;;;;;8.65;100.00;100621.25;5071542;28;20090;-76
2023/01/12 11:50:52;;;;;;;4.80;2.40;;;;;;;8.71;100.00;100628.06;5071346;28;20038;-76
2023/01/12 11:53:22;;;;;;;2.47;2.00;;;;;;;8.76;100.00;100634.03;5071211;28;20439;-76
2023/01/12 11:56:05;;;;;;;5.47;2.55;;;;;;;8.72;100.00;100629.78;5066250;28;20116;-76
2023/01/12 11:58:56;;;;;;;6.97;2.30;;;;;;;8.74;100.00;100622.81;5067268;28;20472;-76
2023/01/12 12:01:37;;;;;;;4.95;2.30;;;;;;;8.79;100.00;100626.16;5060444;28;20389;-77
2023/01/12 12:04:39;;;;;;;6.03;2.42;;;;;;;8.69;100.00;100609.91;5071135;28;20028;-76
2023/01/12 12:07:25;;;;;;;4.38;2.30;;;;;;;8.78;100.00;100624.47;5071544;28;20045;-76
2023/01/12 12:10:12;;;;;;;5.10;1.92;;;;;;;8.82;100.00;100610.50;5074607;28;20384;-77
2023/01/12 12:12:37;;;;;;;6.53;2.45;;;;;;;8.82;100.00;100620.91;5074776;28;20044;-77